Jack Mc Namara Field Airport


Codes: KCEC/CEC
Name: Jack Mc Namara Field Airport
City: Crescent City
Country: United States
Elevation: 61 ft.
Wikipedia:

Photos at Jack Mc Namara Field Airport


   Photos courtesy of SpottingLog. You can add your own sightings and photos by signing up for a free trial today.



No photos found.

Weather at Jack Mc Namara Field Airport


Time (UTC)DescriptionTempratureWindCloud coverageVisibilityPressureHumidity
16-Jun-2024 00:00Clear Sky15°C22 mph, NW0%10000m1023hPa73%
16-Jun-2024 03:00Clear Sky14°C22 mph, NW9%10000m1022hPa76%
16-Jun-2024 06:00Few Clouds12°C13 mph, N19%10000m1021hPa83%
16-Jun-2024 09:00Broken Clouds9°C4 mph, N72%10000m1019hPa87%
16-Jun-2024 12:00Broken Clouds9°C4 mph, NE70%10000m1019hPa84%
16-Jun-2024 15:00Broken Clouds10°C2 mph, N59%10000m1018hPa74%
16-Jun-2024 18:00Scattered Clouds10°C11 mph, NW40%2051m1018hPa80%
16-Jun-2024 21:00Overcast Clouds12°C16 mph, NW89%10000m1018hPa83%
17-Jun-2024 00:00Scattered Clouds12°C11 mph, NW48%10000m1018hPa82%
17-Jun-2024 03:00Clear Sky11°C13 mph, NW0%10000m1017hPa86%
17-Jun-2024 06:00Clear Sky10°C9 mph, N0%10000m1017hPa91%
17-Jun-2024 09:00Clear Sky9°C7 mph, NE0%10000m1017hPa87%
17-Jun-2024 12:00Clear Sky8°C9 mph, NE0%10000m1018hPa80%
17-Jun-2024 15:00Clear Sky10°C9 mph, N0%10000m1019hPa65%
17-Jun-2024 18:00Clear Sky12°C22 mph, NW3%10000m1019hPa71%
17-Jun-2024 21:00Clear Sky11°C29 mph, NW10%10000m1017hPa80%
18-Jun-2024 00:00Clear Sky12°C29 mph, NW6%10000m1016hPa77%
18-Jun-2024 03:00Clear Sky12°C25 mph, NW6%10000m1015hPa81%
18-Jun-2024 06:00Clear Sky11°C11 mph, N4%10000m1015hPa87%
18-Jun-2024 09:00Scattered Clouds10°C2 mph, NE39%10000m1014hPa84%
18-Jun-2024 12:00Scattered Clouds10°C2 mph, E33%10000m1013hPa84%
18-Jun-2024 15:00Broken Clouds11°C2 mph, N74%10000m1013hPa74%
18-Jun-2024 18:00Broken Clouds11°C7 mph, NW66%10000m1012hPa72%
18-Jun-2024 21:00Overcast Clouds11°C7 mph, N92%0m1012hPa81%
19-Jun-2024 00:00Overcast Clouds11°C7 mph, NW97%1416m1012hPa83%
19-Jun-2024 03:00Overcast Clouds11°C4 mph, NW100%10000m1012hPa90%
19-Jun-2024 06:00Overcast Clouds10°C4 mph, S100%10000m1012hPa94%
19-Jun-2024 09:00Overcast Clouds10°C9 mph, SE100%10000m1011hPa95%
19-Jun-2024 12:00Overcast Clouds10°C4 mph, E100%10000m1011hPa91%
19-Jun-2024 15:00Broken Clouds11°C0 mph, S65%10000m1012hPa85%
19-Jun-2024 18:00Scattered Clouds11°C4 mph, N42%0m1012hPa87%
19-Jun-2024 21:00Broken Clouds12°C11 mph, N79%0m1012hPa87%
20-Jun-2024 00:00Overcast Clouds12°C7 mph, NW86%38m1012hPa91%
20-Jun-2024 03:00Overcast Clouds11°C2 mph, N100%8387m1013hPa97%
20-Jun-2024 06:00Overcast Clouds11°C0 mph, N97%10000m1013hPa97%
20-Jun-2024 09:00Broken Clouds11°C2 mph, SE82%10000m1013hPa93%
20-Jun-2024 12:00Overcast Clouds11°C0 mph, E85%10000m1013hPa93%
20-Jun-2024 15:00Scattered Clouds11°C4 mph, NW46%10000m1013hPa90%
20-Jun-2024 18:00Scattered Clouds11°C9 mph, N33%0m1013hPa88%
20-Jun-2024 21:00Broken Clouds13°C13 mph, NW72%263m1013hPa84%